createdAt,value
2017-10-15T00:41:32.852Z,41.73
2017-10-15T00:44:04.638Z,41.97
2017-10-15T00:46:36.616Z,42.11
2017-10-15T00:49:08.492Z,42.20
2017-10-15T00:51:40.773Z,42.24
2017-10-15T00:54:12.411Z,42.25
2017-10-15T00:56:44.754Z,42.31
2017-10-15T00:59:17.655Z,42.34
2017-10-15T01:01:52.801Z,42.35
2017-10-15T01:08:55.352Z,42.43
2017-10-15T01:14:21.329Z,42.49
2017-10-15T01:16:53.515Z,42.49
2017-10-15T01:19:25.499Z,42.51
2017-10-15T01:21:59.271Z,42.50
2017-10-15T01:24:32.640Z,42.49
2017-10-15T01:27:05.036Z,42.50
2017-10-15T01:29:37.334Z,42.52
2017-10-15T01:32:10.838Z,42.50
2017-10-15T01:34:42.421Z,42.54
2017-10-15T01:37:14.153Z,42.53
2017-10-15T01:39:48.928Z,42.53
2017-10-15T01:42:22.588Z,42.52
2017-10-15T01:44:54.021Z,42.51
2017-10-15T01:47:25.855Z,42.52
2017-10-15T01:49:58.487Z,42.56
2017-10-15T01:52:30.087Z,42.61
2017-10-15T01:55:03.155Z,42.63
2017-10-15T01:57:34.859Z,42.63
2017-10-15T02:00:07.004Z,42.62
2017-10-15T02:02:49.949Z,42.59
2017-10-15T02:05:23.542Z,42.58
2017-10-15T02:07:56.398Z,42.59
2017-10-15T02:10:28.070Z,42.60
2017-10-15T02:13:00.703Z,42.60
2017-10-15T02:15:31.906Z,42.63
2017-10-15T02:18:04.354Z,42.60
2017-10-15T02:20:36.522Z,42.61
2017-10-15T02:23:09.628Z,42.60
2017-10-15T02:25:51.525Z,42.59
2017-10-15T02:28:22.783Z,42.62
2017-10-15T02:30:54.767Z,42.63
2017-10-15T02:33:26.385Z,42.63
2017-10-15T02:36:01.113Z,42.62
2017-10-15T02:38:32.865Z,42.58
2017-10-15T02:41:05.683Z,42.56
2017-10-15T02:43:37.036Z,42.58
2017-10-15T02:46:09.386Z,42.60
2017-10-15T02:48:41.537Z,42.62
2017-10-15T02:51:14.307Z,42.64
2017-10-15T02:53:47.876Z,42.66
2017-10-15T02:56:19.553Z,42.65
2017-10-15T02:58:57.097Z,42.67
2017-10-15T03:01:28.584Z,42.64
2017-10-15T03:04:00.133Z,42.68
2017-10-15T03:06:31.840Z,42.70
2017-10-15T03:09:03.278Z,42.71
2017-10-15T03:11:37.412Z,42.70
2017-10-15T03:14:08.955Z,42.70
2017-10-15T03:16:40.844Z,42.67
2017-10-15T03:19:12.689Z,42.66
2017-10-15T03:21:44.693Z,42.67
2017-10-15T03:24:17.139Z,42.66
2017-10-15T03:26:52.346Z,42.61
2017-10-15T03:29:24.298Z,42.61
2017-10-15T03:31:56.375Z,42.63
2017-10-15T03:34:27.830Z,42.66
2017-10-15T03:36:59.442Z,42.67
2017-10-15T03:39:30.930Z,42.68
2017-10-15T03:42:02.890Z,42.67
2017-10-15T03:44:34.930Z,42.68
2017-10-15T03:47:06.556Z,42.68
2017-10-15T03:49:38.247Z,42.70
2017-10-15T03:52:10.554Z,42.69
2017-10-15T03:54:42.183Z,42.69
2017-10-15T03:57:14.277Z,42.70
2017-10-15T03:59:48.715Z,42.71
2017-10-15T04:02:19.671Z,42.70
2017-10-15T04:04:52.745Z,42.68
2017-10-15T04:07:24.840Z,42.66
2017-10-15T04:09:56.814Z,42.67
2017-10-15T04:12:28.673Z,42.70
2017-10-15T04:15:00.199Z,42.68
2017-10-15T04:17:31.541Z,42.67
2017-10-15T04:20:04.404Z,42.65
2017-10-15T04:22:37.806Z,42.67
2017-10-15T04:25:10.578Z,42.67
2017-10-15T04:27:42.567Z,42.71
2017-10-15T04:30:15.708Z,42.71
2017-10-15T04:32:50.960Z,42.72
2017-10-15T04:35:22.511Z,42.72
2017-10-15T04:37:54.024Z,42.72
2017-10-15T04:40:25.964Z,42.73
2017-10-15T04:42:57.448Z,42.73
2017-10-15T04:45:29.399Z,42.73
2017-10-15T04:48:01.779Z,42.73
2017-10-15T04:50:33.469Z,42.72
2017-10-15T04:53:04.819Z,42.74
2017-10-15T04:55:36.909Z,42.74
2017-10-15T04:58:09.671Z,42.76
2017-10-15T05:00:41.149Z,42.78
2017-10-15T05:03:14.211Z,42.76
2017-10-15T05:05:49.583Z,42.75
2017-10-15T05:08:23.392Z,42.75
2017-10-15T05:10:55.614Z,42.74
2017-10-15T05:13:28.593Z,42.76
2017-10-15T05:15:59.984Z,42.76
2017-10-15T05:18:32.001Z,42.75
2017-10-15T05:21:05.354Z,42.75
2017-10-15T05:23:36.941Z,42.76
2017-10-15T05:26:09.882Z,42.77
2017-10-15T05:28:41.641Z,42.77
2017-10-15T05:31:13.979Z,42.76
2017-10-15T05:33:49.017Z,42.77
2017-10-15T05:36:20.472Z,42.78
2017-10-15T05:38:54.455Z,42.61
2017-10-15T05:41:25.672Z,42.77
2017-10-15T05:43:57.733Z,42.74
2017-10-15T05:46:29.664Z,42.75
2017-10-15T05:49:01.833Z,42.75
2017-10-15T05:51:34.915Z,42.75
2017-10-15T05:54:06.734Z,42.73
2017-10-15T05:56:39.035Z,42.72
2017-10-15T05:59:10.960Z,42.71
2017-10-15T06:01:43.023Z,42.69
2017-10-15T06:04:15.429Z,42.66
2017-10-15T06:06:48.864Z,42.64
2017-10-15T06:09:20.762Z,42.65
2017-10-15T06:11:54.734Z,42.46
2017-10-15T06:14:25.961Z,42.61
2017-10-15T06:16:57.813Z,42.59
2017-10-15T06:19:30.264Z,42.58
2017-10-15T06:22:02.825Z,42.55
2017-10-15T06:24:35.059Z,42.54
2017-10-15T06:27:07.653Z,42.51
2017-10-15T06:29:40.036Z,42.49
2017-10-15T06:32:12.160Z,42.46
2017-10-15T06:34:48.014Z,42.44
2017-10-15T06:37:20.123Z,42.42
2017-10-15T06:39:52.454Z,42.38
2017-10-15T06:42:24.304Z,42.33
2017-10-15T06:44:55.653Z,42.29
2017-10-15T06:47:27.289Z,42.30
2017-10-15T06:49:59.879Z,42.28
2017-10-15T06:52:31.650Z,42.25
2017-10-15T06:55:05.509Z,42.20
2017-10-15T06:57:37.576Z,42.16
2017-10-15T07:00:10.504Z,42.10
2017-10-15T07:02:42.345Z,42.08
2017-10-15T07:05:15.653Z,42.04
2017-10-15T07:07:53.811Z,42.03
2017-10-15T07:10:25.619Z,41.96
2017-10-15T07:12:58.739Z,41.92
2017-10-15T07:15:29.962Z,41.89
2017-10-15T07:18:04.786Z,41.86
2017-10-15T07:20:38.467Z,41.82
2017-10-15T07:23:13.450Z,41.76
2017-10-15T07:25:51.853Z,41.73
2017-10-15T07:28:25.464Z,41.75
2017-10-15T07:30:57.132Z,41.73
2017-10-15T07:33:29.211Z,41.66
2017-10-15T07:36:01.228Z,41.64
2017-10-15T07:38:35.096Z,41.60
2017-10-15T07:41:11.993Z,41.54
2017-10-15T07:43:43.190Z,41.50
2017-10-15T07:46:18.057Z,41.46
2017-10-15T07:48:51.599Z,41.39
2017-10-15T07:51:24.609Z,41.38
2017-10-15T07:53:56.233Z,41.35
2017-10-15T07:56:28.401Z,41.26
2017-10-15T07:59:01.022Z,41.23
2017-10-15T08:01:32.814Z,41.23
2017-10-15T08:04:05.761Z,41.19
2017-10-15T08:06:37.407Z,41.15
2017-10-15T08:09:08.302Z,41.07
2017-10-15T08:11:46.366Z,40.97
2017-10-15T08:14:19.113Z,40.87
2017-10-15T08:16:51.247Z,40.79
2017-10-15T08:19:23.497Z,40.66
2017-10-15T08:21:57.354Z,40.52
2017-10-15T08:24:29.060Z,40.47
2017-10-15T08:27:05.823Z,40.41
2017-10-15T08:29:40.954Z,40.33
2017-10-15T08:32:15.795Z,40.27
2017-10-15T08:34:49.110Z,40.21
2017-10-15T08:37:22.742Z,40.17
2017-10-15T08:39:54.248Z,40.11
2017-10-15T08:42:25.970Z,40.07
2017-10-15T08:44:57.882Z,39.99
2017-10-15T08:47:29.560Z,39.93
2017-10-15T08:50:01.643Z,39.91
2017-10-15T08:52:33.222Z,39.88
2017-10-15T08:55:05.692Z,39.83
2017-10-15T08:57:36.922Z,39.77
2017-10-15T09:00:11.274Z,39.73
2017-10-15T09:02:43.098Z,39.68
2017-10-15T09:05:18.133Z,39.58
2017-10-15T09:07:49.987Z,39.57
2017-10-15T09:10:21.101Z,39.55
2017-10-15T09:12:52.867Z,39.52
2017-10-15T09:15:23.992Z,39.50
2017-10-15T09:17:55.896Z,39.46
2017-10-15T09:20:27.143Z,39.42
2017-10-15T09:22:58.813Z,39.37
2017-10-15T09:25:31.025Z,39.32
2017-10-15T09:28:03.161Z,39.27
2017-10-15T09:30:35.396Z,39.21
2017-10-15T09:33:07.598Z,39.13
2017-10-15T09:35:41.090Z,39.05
2017-10-15T09:38:18.862Z,38.98
2017-10-15T10:13:19.826Z,37.71
2017-10-15T10:15:51.679Z,37.72
2017-10-15T10:18:23.037Z,37.82
2017-10-15T10:26:58.602Z,37.73
2017-10-15T12:54:46.290Z,37.97
2017-10-15T12:57:19.748Z,37.36
2017-10-15T12:59:52.095Z,36.90
2017-10-15T13:02:25.034Z,36.57
2017-10-15T13:04:56.685Z,36.33
2017-10-15T13:07:29.345Z,36.13
2017-10-15T13:10:01.581Z,35.98
2017-10-15T13:12:34.998Z,35.83
2017-10-15T13:15:08.806Z,35.72
2017-10-15T13:17:44.042Z,35.63
2017-10-15T13:20:18.312Z,35.57
2017-10-15T13:22:52.502Z,35.45
2017-10-15T13:25:23.871Z,35.41
2017-10-15T13:27:55.506Z,35.32
2017-10-15T13:30:28.666Z,35.23
2017-10-15T13:33:01.972Z,35.17
2017-10-15T13:35:34.696Z,35.14
2017-10-15T13:38:06.226Z,35.08
2017-10-15T13:40:37.490Z,35.03
2017-10-15T13:43:11.532Z,34.98
2017-10-15T13:45:45.912Z,34.95
2017-10-15T13:48:19.397Z,34.92
2017-10-15T13:50:54.013Z,34.88
2017-10-15T13:53:28.098Z,34.87
2017-10-15T13:55:59.522Z,34.85
2017-10-15T13:58:38.242Z,34.82
2017-10-15T14:01:14.012Z,34.80
2017-10-15T14:03:45.409Z,34.78
2017-10-15T14:06:19.074Z,34.77
2017-10-15T14:08:51.579Z,34.78
2017-10-15T14:11:23.218Z,34.79
2017-10-15T14:13:56.795Z,34.78
2017-10-15T14:16:53.917Z,34.65
2017-10-15T14:19:25.978Z,34.71
2017-10-15T14:22:00.190Z,34.73
2017-10-15T14:24:31.866Z,34.75
2017-10-15T14:27:03.588Z,34.79
2017-10-15T14:29:37.008Z,34.78
2017-10-15T14:32:08.486Z,34.82
2017-10-15T14:34:39.589Z,34.84
2017-10-15T14:37:12.703Z,34.88
2017-10-15T14:39:44.378Z,34.92
2017-10-15T14:42:17.976Z,34.88
2017-10-15T14:44:54.842Z,34.68
2017-10-15T14:47:25.896Z,34.63
2017-10-15T14:49:58.929Z,34.61
2017-10-15T14:52:30.295Z,34.66
2017-10-15T14:55:02.311Z,34.77
2017-10-15T14:57:33.617Z,34.90
2017-10-15T15:00:05.238Z,35.03
2017-10-15T15:02:36.894Z,35.14
2017-10-15T15:05:12.304Z,35.24
2017-10-15T15:07:45.050Z,35.35
2017-10-15T15:10:18.370Z,35.37
2017-10-15T15:12:54.107Z,35.49
2017-10-15T15:15:27.504Z,35.53
2017-10-15T15:17:58.837Z,35.58
2017-10-15T15:20:31.035Z,35.59
2017-10-15T15:23:03.056Z,35.64
2017-10-15T15:25:34.089Z,35.69
2017-10-15T15:28:05.620Z,35.73
2017-10-15T15:30:36.614Z,35.81
2017-10-15T15:33:11.184Z,35.86
2017-10-15T15:35:44.273Z,35.96
2017-10-15T15:38:16.033Z,36.04
2017-10-15T15:40:47.576Z,36.11
2017-10-15T15:43:19.121Z,36.19
2017-10-15T15:45:50.336Z,36.25
2017-10-15T15:48:22.049Z,36.32
2017-10-15T15:50:56.349Z,36.36
2017-10-15T15:53:28.569Z,36.45
2017-10-15T15:56:00.045Z,36.52
2017-10-15T15:58:33.056Z,36.58
2017-10-15T16:01:04.566Z,36.60
2017-10-15T16:03:36.185Z,36.65
2017-10-15T16:06:10.167Z,36.71
2017-10-15T16:08:47.979Z,36.78
2017-10-15T16:11:20.368Z,36.83
2017-10-15T16:13:53.532Z,36.87
2017-10-15T16:16:27.662Z,36.93
2017-10-15T16:19:01.080Z,36.97
2017-10-15T16:21:34.606Z,37.09
2017-10-15T16:24:06.602Z,37.17
2017-10-15T16:26:40.856Z,37.26
2017-10-15T16:29:15.736Z,37.34
2017-10-15T16:31:48.731Z,37.43
2017-10-15T16:34:21.017Z,37.48
2017-10-15T16:36:52.948Z,37.56
2017-10-15T16:39:24.956Z,37.61
2017-10-15T16:41:57.523Z,37.67
2017-10-15T16:44:29.436Z,37.76
2017-10-15T16:47:00.501Z,37.80
2017-10-15T16:49:31.648Z,37.89
2017-10-15T16:52:03.280Z,37.96
2017-10-15T16:54:38.376Z,38.02
2017-10-15T16:57:12.399Z,38.11
2017-10-15T16:59:44.138Z,38.19
2017-10-15T17:02:17.762Z,38.28
2017-10-15T17:04:50.258Z,38.38
2017-10-15T17:07:22.016Z,38.46
2017-10-15T17:09:54.354Z,38.59
2017-10-15T17:12:26.497Z,38.67
2017-10-15T17:14:59.147Z,38.77
2017-10-15T17:17:31.633Z,38.86
2017-10-15T17:20:06.083Z,38.92
2017-10-15T17:22:40.263Z,39.00
2017-10-15T17:25:17.992Z,39.07
2017-10-15T17:27:50.340Z,39.14
2017-10-15T17:30:24.178Z,39.24
2017-10-15T17:32:59.668Z,39.33
2017-10-15T17:35:32.474Z,39.38
2017-10-15T17:38:04.382Z,39.45
2017-10-15T17:40:37.910Z,39.50
2017-10-15T17:43:10.727Z,39.54
2017-10-15T17:45:43.883Z,39.59
2017-10-15T17:48:19.097Z,39.53
2017-10-15T17:50:51.199Z,39.73
2017-10-15T17:53:23.703Z,39.77
2017-10-15T17:55:58.468Z,39.75
2017-10-15T17:58:45.704Z,39.83
2017-10-15T18:01:18.473Z,39.89
2017-10-15T18:03:50.966Z,39.93
2017-10-15T18:06:27.789Z,39.95
2017-10-15T18:09:22.571Z,39.97
2017-10-15T18:12:00.256Z,40.05
2017-10-15T18:14:35.892Z,40.04
2017-10-15T20:19:19.523Z,44.70
2017-10-15T20:21:52.752Z,44.03
2017-10-15T20:24:24.693Z,43.47
2017-10-15T20:26:55.786Z,43.11
2017-10-15T20:29:27.716Z,42.85
2017-10-15T20:32:00.929Z,42.68
2017-10-15T20:34:32.949Z,42.52
2017-10-15T20:37:05.770Z,42.44
2017-10-15T20:39:40.001Z,42.33
2017-10-15T20:42:13.205Z,42.28
2017-10-15T20:44:46.616Z,42.21
2017-10-15T20:47:18.518Z,42.16
2017-10-15T20:49:50.831Z,42.08
2017-10-15T20:52:22.135Z,42.07
2017-10-15T20:54:55.499Z,42.07
2017-10-15T20:57:30.780Z,42.07
2017-10-15T21:00:03.817Z,42.09
2017-10-15T21:02:36.563Z,42.13
2017-10-15T21:05:12.660Z,42.15
2017-10-15T21:07:46.905Z,42.17
2017-10-15T21:10:18.827Z,42.17
2017-10-15T21:12:54.705Z,42.20
2017-10-15T21:15:28.596Z,42.20
2017-10-15T21:18:01.157Z,42.19
2017-10-15T21:20:33.467Z,42.17
2017-10-15T21:23:28.578Z,42.09
2017-10-15T21:26:02.235Z,42.06
2017-10-15T21:28:33.853Z,42.04
2017-10-15T21:31:05.876Z,42.04
2017-10-15T21:33:37.255Z,42.05
2017-10-15T21:36:08.707Z,42.06
2017-10-15T21:38:41.148Z,42.03
2017-10-15T21:41:15.364Z,42.03
2017-10-15T21:43:47.546Z,42.02
2017-10-15T21:46:18.932Z,42.03
2017-10-15T21:48:50.939Z,42.04
2017-10-15T21:51:23.014Z,42.02
2017-10-15T21:53:54.681Z,42.01
2017-10-15T21:56:26.451Z,42.00
2017-10-15T21:58:59.649Z,41.99
2017-10-15T22:04:18.666Z,41.99
2017-10-15T22:06:50.388Z,41.99
2017-10-15T22:09:22.406Z,41.98
2017-10-15T22:11:54.876Z,42.00
2017-10-15T22:14:26.869Z,42.00
2017-10-15T22:16:59.416Z,42.01
2017-10-15T22:19:30.696Z,41.99
2017-10-15T22:22:05.530Z,41.99
2017-10-15T22:24:36.495Z,42.01
2017-10-15T22:27:08.195Z,42.01
2017-10-15T22:29:39.938Z,42.01
2017-10-15T22:32:13.688Z,42.04
2017-10-15T22:34:46.015Z,42.06
2017-10-15T22:37:17.844Z,42.07
2017-10-15T22:39:49.688Z,42.08
2017-10-15T22:42:21.130Z,42.04
2017-10-15T22:44:52.116Z,42.08
2017-10-15T22:47:24.904Z,42.07
2017-10-15T22:49:56.365Z,42.06
2017-10-15T22:52:28.241Z,42.06
2017-10-15T22:54:59.747Z,42.05
2017-10-15T22:57:31.712Z,42.04
2017-10-15T23:00:04.928Z,42.02
2017-10-15T23:02:37.293Z,42.04
2017-10-15T23:05:13.813Z,42.07
2017-10-15T23:07:47.793Z,42.01
2017-10-15T23:10:26.882Z,42.04
2017-10-15T23:12:59.662Z,42.05
2017-10-15T23:15:31.383Z,42.06
2017-10-15T23:18:03.296Z,42.08
2017-10-15T23:20:34.999Z,42.08
2017-10-15T23:23:06.957Z,42.07
2017-10-15T23:25:39.550Z,42.07
2017-10-15T23:28:14.695Z,42.08
2017-10-15T23:30:47.258Z,42.08
2017-10-15T23:33:19.527Z,42.08
2017-10-15T23:35:50.988Z,42.04
2017-10-15T23:38:23.448Z,42.10
2017-10-15T23:40:55.909Z,42.11
2017-10-15T23:43:27.520Z,42.13
2017-10-15T23:46:03.601Z,42.16
2017-10-15T23:48:38.597Z,42.22
2017-10-15T23:51:12.212Z,42.25
2017-10-15T23:53:44.192Z,42.23
2017-10-15T23:56:19.641Z,42.22
2017-10-15T23:58:51.977Z,42.22
